createdAt,value
2023-02-12T00:00:51.988Z,18.27
2023-02-12T00:03:18.926Z,17.48
2023-02-12T00:05:45.753Z,17.23
2023-02-12T00:08:14.244Z,15.70
2023-02-12T00:10:43.153Z,14.82
2023-02-12T00:13:12.967Z,15.77
2023-02-12T00:15:41.543Z,14.55
2023-02-12T00:18:08.657Z,14.18
2023-02-12T00:20:37.015Z,13.13
2023-02-12T00:23:03.883Z,13.35
2023-02-12T00:25:30.536Z,12.02
2023-02-12T00:27:57.367Z,13.23
2023-02-12T00:30:25.830Z,10.80
2023-02-12T00:32:55.425Z,10.70
2023-02-12T00:35:22.132Z,10.40
2023-02-12T00:37:50.323Z,11.05
2023-02-12T00:40:16.967Z,10.07
2023-02-12T00:42:43.664Z,11.43
2023-02-12T00:45:10.363Z,11.25
2023-02-12T00:47:37.056Z,10.35
2023-02-12T00:50:03.821Z,10.30
2023-02-12T00:52:30.416Z,10.85
2023-02-12T00:54:57.195Z,11.77
2023-02-12T00:57:23.813Z,10.80
2023-02-12T00:59:50.590Z,13.98
2023-02-12T01:02:18.199Z,12.32
2023-02-12T01:04:46.880Z,13.02
2023-02-12T01:07:13.597Z,13.27
2023-02-12T01:09:40.205Z,11.98
2023-02-12T01:12:07.113Z,10.95
2023-02-12T01:14:34.021Z,11.93
2023-02-12T01:17:00.701Z,11.05
2023-02-12T01:19:27.947Z,10.23
2023-02-12T01:21:54.580Z,9.02
2023-02-12T01:24:21.415Z,9.10
2023-02-12T01:26:48.044Z,7.65
2023-02-12T01:29:14.720Z,8.68
2023-02-12T01:31:42.857Z,9.52
2023-02-12T01:34:11.223Z,7.30
2023-02-12T01:36:39.007Z,8.50
2023-02-12T01:39:06.404Z,6.80
2023-02-12T01:41:36.771Z,7.55
2023-02-12T01:44:24.100Z,5.65
2023-02-12T01:46:57.393Z,5.35
2023-02-12T01:49:40.390Z,6.07
2023-02-12T01:52:18.133Z,6.28
2023-02-12T01:54:47.303Z,6.47
2023-02-12T01:57:16.075Z,8.18
2023-02-12T01:59:45.608Z,7.53
2023-02-12T02:02:12.525Z,7.47
2023-02-12T02:04:50.522Z,9.00
2023-02-12T02:07:17.347Z,8.65
2023-02-12T02:09:44.469Z,8.43
2023-02-12T02:12:29.761Z,8.75
2023-02-12T02:15:00.125Z,8.68
2023-02-12T02:17:48.756Z,8.82
2023-02-12T02:20:24.269Z,10.48
2023-02-12T02:23:00.171Z,10.77
2023-02-12T02:25:47.149Z,10.95
2023-02-12T02:28:51.804Z,11.38
2023-02-12T02:31:25.093Z,11.70
2023-02-12T02:33:56.062Z,10.57
2023-02-12T02:36:59.704Z,12.95
2023-02-12T02:39:42.116Z,11.07
2023-02-12T02:42:16.216Z,13.45
2023-02-12T02:44:54.684Z,12.15
2023-02-12T02:47:26.651Z,14.98
2023-02-12T02:50:02.484Z,11.38
2023-02-12T02:52:35.684Z,14.43
2023-02-12T02:55:08.062Z,14.52
2023-02-12T02:58:10.782Z,15.63
2023-02-12T03:00:49.034Z,15.85
2023-02-12T03:03:34.419Z,15.52
2023-02-12T03:06:25.549Z,15.90
2023-02-12T03:09:05.450Z,16.35
2023-02-12T03:11:34.006Z,15.27
2023-02-12T03:14:15.362Z,15.95
2023-02-12T03:16:46.333Z,16.25
2023-02-12T03:19:25.547Z,14.90
2023-02-12T03:22:00.594Z,13.82
2023-02-12T03:24:38.884Z,13.55
2023-02-12T03:27:19.120Z,15.30
2023-02-12T03:29:46.633Z,14.40
2023-02-12T03:32:44.256Z,12.32
2023-02-12T03:35:13.481Z,13.57
2023-02-12T03:37:43.130Z,14.77
2023-02-12T03:40:17.935Z,13.75
2023-02-12T03:42:58.222Z,14.63
2023-02-12T03:45:35.880Z,13.18
2023-02-12T03:48:28.861Z,11.77
2023-02-12T03:50:58.667Z,11.93
2023-02-12T03:53:27.620Z,12.95
2023-02-12T03:55:58.486Z,11.63
2023-02-12T03:58:29.595Z,10.10
2023-02-12T04:00:57.036Z,11.30
2023-02-12T04:03:24.957Z,10.15
2023-02-12T04:05:51.631Z,10.02
2023-02-12T04:08:18.401Z,9.98
2023-02-12T04:10:51.075Z,10.88
2023-02-12T04:13:23.520Z,8.93
2023-02-12T04:16:22.572Z,7.85
2023-02-12T04:18:49.997Z,9.00
2023-02-12T04:21:34.573Z,9.98
2023-02-12T04:24:35.034Z,8.55
2023-02-12T04:27:13.107Z,8.30
2023-02-12T04:30:00.317Z,8.57
2023-02-12T04:32:39.180Z,6.88
2023-02-12T04:35:20.190Z,8.55
2023-02-12T04:37:49.670Z,9.63
2023-02-12T04:40:21.361Z,9.38
2023-02-12T04:42:53.285Z,9.23
2023-02-12T04:45:29.978Z,9.35
2023-02-12T04:47:57.233Z,9.35
2023-02-12T04:50:24.092Z,11.75
2023-02-12T04:52:50.954Z,12.10
2023-02-12T04:55:17.882Z,10.70
2023-02-12T04:57:44.566Z,13.48
2023-02-12T05:00:15.595Z,14.13
2023-02-12T05:02:42.403Z,13.52
2023-02-12T05:05:09.144Z,13.63
2023-02-12T05:07:35.929Z,14.23
2023-02-12T05:10:03.113Z,13.05
2023-02-12T05:12:29.743Z,16.13
2023-02-12T05:14:57.871Z,16.08
2023-02-12T05:17:27.717Z,16.55
2023-02-12T05:19:54.340Z,12.85
2023-02-12T05:22:21.056Z,19.85
2023-02-12T05:24:47.893Z,15.20
2023-02-12T05:27:14.696Z,16.33
2023-02-12T05:29:41.455Z,15.32
2023-02-12T05:32:08.500Z,15.88
2023-02-12T05:34:35.629Z,17.08
2023-02-12T05:37:02.300Z,13.55
2023-02-12T05:39:29.006Z,16.50
2023-02-12T05:41:56.790Z,14.25
2023-02-12T05:44:23.679Z,14.18
2023-02-12T05:46:50.397Z,16.02
2023-02-12T05:49:17.108Z,14.57
2023-02-12T05:51:44.030Z,15.00
2023-02-12T05:54:10.978Z,13.35
2023-02-12T05:56:43.064Z,15.82
2023-02-12T05:59:20.300Z,14.00
2023-02-12T06:01:48.756Z,14.02
2023-02-12T06:04:21.925Z,13.45
2023-02-12T06:06:48.579Z,15.50
2023-02-12T06:09:15.411Z,14.50
2023-02-12T06:11:42.955Z,15.05
2023-02-12T06:14:14.203Z,15.57
2023-02-12T06:16:41.586Z,20.10
2023-02-12T06:19:08.402Z,16.73
2023-02-12T06:21:35.168Z,18.70
2023-02-12T06:24:01.983Z,16.98
2023-02-12T06:26:28.778Z,17.85
2023-02-12T06:28:55.665Z,18.75
2023-02-12T06:31:28.621Z,18.77
2023-02-12T06:33:57.150Z,18.42
2023-02-12T06:36:24.193Z,20.23
2023-02-12T06:38:51.596Z,18.58
2023-02-12T06:41:18.310Z,19.23
2023-02-12T06:43:45.374Z,19.35
2023-02-12T06:46:12.556Z,19.40
2023-02-12T06:48:39.305Z,21.08
2023-02-12T06:51:12.129Z,20.40
2023-02-12T06:53:39.251Z,21.08
2023-02-12T06:56:11.236Z,21.92
2023-02-12T06:58:38.582Z,23.73
2023-02-12T07:01:17.916Z,24.42
2023-02-12T07:03:50.497Z,25.08
2023-02-12T07:06:17.746Z,27.20
2023-02-12T07:08:44.934Z,25.13
2023-02-12T07:11:12.179Z,27.15
2023-02-12T07:13:43.860Z,24.95
2023-02-12T07:16:12.931Z,24.30
2023-02-12T07:18:40.423Z,23.92
2023-02-12T07:21:08.354Z,23.40
2023-02-12T07:23:35.702Z,24.50
2023-02-12T07:26:05.554Z,26.15
2023-02-12T07:28:36.130Z,24.23
2023-02-12T07:31:15.298Z,28.95
2023-02-12T07:33:42.786Z,25.95
2023-02-12T07:36:14.908Z,25.42
2023-02-12T07:38:42.442Z,25.83
2023-02-12T07:41:12.359Z,29.80
2023-02-12T07:43:40.836Z,24.33
2023-02-12T07:46:09.664Z,27.95
2023-02-12T07:48:36.411Z,26.77
2023-02-12T07:51:11.415Z,25.50
2023-02-12T07:53:38.172Z,28.38
2023-02-12T07:56:15.505Z,26.73
2023-02-12T07:58:47.105Z,25.30
2023-02-12T08:01:26.570Z,25.45
2023-02-12T08:03:54.062Z,27.60
2023-02-12T08:06:26.392Z,29.23
2023-02-12T08:08:55.910Z,27.75
2023-02-12T08:11:23.275Z,26.20
2023-02-12T08:13:49.980Z,29.15
2023-02-12T08:16:19.119Z,29.13
2023-02-12T08:18:46.648Z,27.85
2023-02-12T08:21:16.162Z,28.83
2023-02-12T08:23:42.749Z,32.45
2023-02-12T08:26:15.475Z,28.00
2023-02-12T08:28:45.076Z,30.75
2023-02-12T08:31:15.046Z,28.35
2023-02-12T08:33:41.797Z,28.70
2023-02-12T08:36:11.643Z,27.90
2023-02-12T08:38:39.510Z,29.80
2023-02-12T08:41:12.515Z,28.00
2023-02-12T08:43:40.465Z,32.00
2023-02-12T08:46:28.993Z,29.48
2023-02-12T08:48:58.952Z,28.77
2023-02-12T08:51:28.522Z,29.27
2023-02-12T08:53:58.206Z,26.55
2023-02-12T08:56:26.024Z,28.20
2023-02-12T08:58:53.091Z,28.23
2023-02-12T09:01:24.124Z,28.52
2023-02-12T09:03:51.832Z,26.85
2023-02-12T09:06:20.929Z,29.33
2023-02-12T09:08:48.158Z,28.05
2023-02-12T09:11:18.243Z,31.38
2023-02-12T09:13:46.717Z,28.80
2023-02-12T09:16:14.270Z,25.92
2023-02-12T09:18:41.744Z,26.92
2023-02-12T09:21:11.989Z,27.77
2023-02-12T09:23:39.828Z,25.98
2023-02-12T09:26:09.164Z,25.38
2023-02-12T09:28:37.041Z,25.48
2023-02-12T09:31:13.517Z,25.15
2023-02-12T09:33:41.458Z,24.90
2023-02-12T09:36:13.875Z,24.35
2023-02-12T09:38:41.400Z,25.70
2023-02-12T09:41:20.081Z,25.02
2023-02-12T09:43:55.369Z,23.45
2023-02-12T09:46:36.228Z,21.88
2023-02-12T09:49:11.856Z,26.40
2023-02-12T09:51:42.322Z,25.13
2023-02-12T09:54:21.607Z,24.98
2023-02-12T09:56:53.202Z,25.08
2023-02-12T09:59:39.229Z,27.98
2023-02-12T10:02:17.547Z,25.90
2023-02-12T10:05:00.318Z,26.00
2023-02-12T10:07:43.332Z,29.00
2023-02-12T10:10:34.575Z,25.45
2023-02-12T10:13:05.409Z,27.27
2023-02-12T10:15:40.259Z,24.83
2023-02-12T10:18:42.179Z,24.88
2023-02-12T10:21:20.972Z,24.75
2023-02-12T10:24:05.817Z,24.65
2023-02-12T10:26:43.510Z,24.08
2023-02-12T10:29:18.926Z,29.38
2023-02-12T10:31:53.314Z,29.75
2023-02-12T10:34:26.322Z,29.42
2023-02-12T10:37:01.680Z,25.90
2023-02-12T10:39:35.953Z,30.98
2023-02-12T10:42:04.500Z,25.70
2023-02-12T10:44:31.580Z,24.88
2023-02-12T10:46:58.198Z,25.48
2023-02-12T10:49:25.110Z,24.80
2023-02-12T10:52:13.679Z,27.02
2023-02-12T10:54:45.863Z,28.08
2023-02-12T10:57:12.740Z,23.83
2023-02-12T10:59:41.352Z,25.77
2023-02-12T11:02:31.641Z,23.77
2023-02-12T11:05:00.730Z,25.58
2023-02-12T11:07:28.770Z,23.38
2023-02-12T11:09:57.092Z,25.77
2023-02-12T11:12:33.156Z,23.85
2023-02-12T11:15:07.940Z,25.50
2023-02-12T11:17:40.244Z,25.75
2023-02-12T11:20:16.097Z,24.60
2023-02-12T11:23:23.823Z,26.27
2023-02-12T11:28:27.862Z,27.23
2023-02-12T11:31:13.392Z,26.60
2023-02-12T11:33:51.985Z,24.95
2023-02-12T11:36:38.605Z,24.73
2023-02-12T11:39:09.981Z,24.10
2023-02-12T11:41:40.449Z,24.70
2023-02-12T11:44:12.179Z,27.73
2023-02-12T11:46:40.607Z,25.98
2023-02-12T11:49:11.383Z,24.23
2023-02-12T11:51:39.792Z,25.63
2023-02-12T11:54:07.109Z,24.25
2023-02-12T11:56:45.777Z,26.48
2023-02-12T11:59:29.806Z,25.52
2023-02-12T12:02:02.424Z,26.75
2023-02-12T12:04:35.869Z,26.55
2023-02-12T12:07:30.183Z,25.33
2023-02-12T12:10:06.224Z,23.17
2023-02-12T12:15:33.121Z,22.42
2023-02-12T12:18:40.416Z,18.98
2023-02-12T12:21:18.537Z,17.90
2023-02-12T12:24:20.790Z,17.88
2023-02-12T12:27:05.142Z,18.17
2023-02-12T12:29:52.138Z,18.17
2023-02-12T12:32:21.583Z,17.00
2023-02-12T12:34:50.034Z,15.65
2023-02-12T12:38:02.265Z,20.42
2023-02-12T12:40:42.363Z,17.08
2023-02-12T12:43:26.389Z,15.32
2023-02-12T12:46:20.188Z,16.55
2023-02-12T12:49:06.287Z,15.18
2023-02-12T12:52:29.345Z,14.48
2023-02-12T12:55:32.060Z,14.10
2023-02-12T12:58:14.518Z,13.82
2023-02-12T13:01:00.353Z,11.52
2023-02-12T13:03:58.348Z,11.07
2023-02-12T13:06:35.300Z,11.27
2023-02-12T13:09:13.529Z,10.70
2023-02-12T13:12:12.839Z,11.13
2023-02-12T13:14:49.152Z,11.43
2023-02-12T13:17:49.495Z,8.57
2023-02-12T13:20:53.171Z,9.75
2023-02-12T13:23:44.913Z,9.57
2023-02-12T13:26:34.145Z,11.95
2023-02-12T13:29:50.105Z,8.80
2023-02-12T13:32:54.955Z,8.93
2023-02-12T13:35:32.749Z,7.97
2023-02-12T13:38:21.430Z,8.25
2023-02-12T13:41:01.552Z,7.43
2023-02-12T13:43:50.416Z,7.05
2023-02-12T13:47:11.092Z,6.43
2023-02-12T13:50:07.866Z,6.50
2023-02-12T13:52:43.014Z,7.05
2023-02-12T13:55:10.117Z,5.88
2023-02-12T13:57:40.287Z,6.68
2023-02-12T14:00:45.644Z,7.32
2023-02-12T14:03:14.880Z,6.78
2023-02-12T14:05:44.438Z,7.53
2023-02-12T14:08:39.801Z,8.00
2023-02-12T14:11:11.236Z,7.43
2023-02-12T14:14:08.253Z,8.90
2023-02-12T14:16:43.316Z,7.18
2023-02-12T14:19:49.881Z,6.47
2023-02-12T14:22:32.310Z,7.65
2023-02-12T14:25:30.408Z,7.07
2023-02-12T14:27:59.916Z,9.05
2023-02-12T14:30:49.760Z,8.40
2023-02-12T14:34:10.011Z,9.27
2023-02-12T14:39:38.806Z,9.02
2023-02-12T14:42:45.002Z,8.02
2023-02-12T14:45:40.305Z,8.68
2023-02-12T14:49:00.946Z,8.38
2023-02-12T14:51:54.031Z,8.35
2023-02-12T14:54:40.550Z,10.05
2023-02-12T14:57:16.417Z,9.55
2023-02-12T14:59:54.781Z,9.07
2023-02-12T15:02:33.374Z,8.20
2023-02-12T15:05:10.440Z,9.98
2023-02-12T15:08:02.288Z,10.40
2023-02-12T15:10:56.824Z,9.13
2023-02-12T15:13:45.142Z,9.02
2023-02-12T15:16:36.566Z,8.38
2023-02-12T15:19:24.340Z,10.25
2023-02-12T15:22:09.363Z,8.40
2023-02-12T15:24:40.709Z,7.90
2023-02-12T15:27:07.856Z,7.55
2023-02-12T15:29:47.015Z,7.63
2023-02-12T15:32:25.702Z,6.50
2023-02-12T15:34:59.306Z,9.20
2023-02-12T15:37:34.091Z,7.20
2023-02-12T15:40:06.315Z,7.35
2023-02-12T15:42:41.920Z,8.05
2023-02-12T15:45:22.388Z,5.75
2023-02-12T15:48:11.370Z,7.10
2023-02-12T15:51:25.271Z,5.57
2023-02-12T15:53:55.085Z,6.75
2023-02-12T15:56:24.493Z,5.75
2023-02-12T15:58:57.039Z,5.03
2023-02-12T16:01:31.011Z,6.10
2023-02-12T16:04:09.798Z,5.40
2023-02-12T16:06:45.152Z,5.20
2023-02-12T16:09:30.377Z,5.15
2023-02-12T16:12:04.812Z,5.20
2023-02-12T16:14:43.587Z,5.28
2023-02-12T16:17:29.381Z,5.07
2023-02-12T16:20:22.466Z,5.63
2023-02-12T16:23:05.588Z,5.65
2023-02-12T16:25:40.835Z,5.18
2023-02-12T16:28:36.555Z,5.38
2023-02-12T16:34:10.925Z,4.68
2023-02-12T16:40:05.024Z,4.22
2023-02-12T16:43:09.346Z,4.78
2023-02-12T16:45:48.744Z,5.00
2023-02-12T16:48:59.021Z,4.80
2023-02-12T16:51:36.286Z,5.10
2023-02-12T16:54:30.674Z,5.10
2023-02-12T16:57:02.481Z,5.07
2023-02-12T16:59:40.800Z,5.90
2023-02-12T17:02:22.762Z,5.38
2023-02-12T17:04:53.345Z,6.25
2023-02-12T17:07:34.637Z,5.85
2023-02-12T17:10:21.360Z,6.72
2023-02-12T17:12:53.450Z,6.45
2023-02-12T17:15:53.444Z,6.97
2023-02-12T17:18:34.852Z,7.53
2023-02-12T17:21:17.857Z,7.43
2023-02-12T17:23:53.022Z,8.00
2023-02-12T17:26:43.737Z,9.18
2023-02-12T17:29:20.472Z,9.02
2023-02-12T17:31:53.932Z,9.63
2023-02-12T17:34:24.898Z,8.68
2023-02-12T17:37:03.993Z,9.23
2023-02-12T17:39:38.877Z,9.10
2023-02-12T17:42:06.844Z,9.63
2023-02-12T17:44:34.338Z,8.80
2023-02-12T17:47:03.598Z,9.80
2023-02-12T17:49:35.587Z,9.35
2023-02-12T17:52:10.063Z,10.48
2023-02-12T17:54:37.435Z,12.20
2023-02-12T17:57:07.150Z,11.98
2023-02-12T17:59:38.385Z,12.68
2023-02-12T18:02:14.966Z,13.98
2023-02-12T18:04:50.591Z,12.60
2023-02-12T18:07:22.260Z,10.98
2023-02-12T18:09:56.791Z,11.82
2023-02-12T18:12:28.248Z,11.43
2023-02-12T18:15:06.756Z,12.25
2023-02-12T18:17:39.704Z,10.52
2023-02-12T18:20:11.210Z,12.05
2023-02-12T18:22:41.085Z,12.48
2023-02-12T18:25:14.201Z,12.65
2023-02-12T18:27:48.799Z,11.48
2023-02-12T18:30:40.920Z,13.02
2023-02-12T18:33:19.037Z,10.88
2023-02-12T18:35:59.468Z,11.25
2023-02-12T18:38:27.098Z,12.70
2023-02-12T18:40:59.842Z,11.65
2023-02-12T18:43:34.173Z,10.63
2023-02-12T18:46:18.876Z,12.23
2023-02-12T18:49:14.565Z,13.50
2023-02-12T18:51:56.423Z,12.45
2023-02-12T18:54:33.091Z,15.23
2023-02-12T18:57:03.286Z,11.77
2023-02-12T18:59:34.668Z,13.10
2023-02-12T19:02:15.549Z,11.80
2023-02-12T19:05:01.939Z,13.20
2023-02-12T19:07:30.359Z,13.52
2023-02-12T19:10:02.174Z,14.90
2023-02-12T19:12:31.661Z,14.55
2023-02-12T19:15:01.360Z,13.63
2023-02-12T19:17:36.131Z,12.90
2023-02-12T19:20:16.744Z,13.30
2023-02-12T19:22:59.430Z,13.32
2023-02-12T19:25:31.778Z,12.32
2023-02-12T19:28:07.923Z,12.32
2023-02-12T19:30:43.512Z,14.23
2023-02-12T19:33:13.697Z,13.97
2023-02-12T19:35:44.698Z,12.52
2023-02-12T19:38:13.123Z,12.30
2023-02-12T19:40:40.214Z,13.15
2023-02-12T19:43:07.145Z,12.88
2023-02-12T19:45:41.751Z,14.07
2023-02-12T19:48:17.851Z,13.90
2023-02-12T19:50:51.069Z,13.43
2023-02-12T19:53:23.766Z,11.90
2023-02-12T19:55:55.446Z,12.85
2023-02-12T19:58:27.108Z,13.75
2023-02-12T20:01:01.973Z,12.95
2023-02-12T20:03:34.556Z,13.48
2023-02-12T20:06:11.948Z,15.75
2023-02-12T20:08:43.814Z,15.18
2023-02-12T20:11:16.878Z,14.70
2023-02-12T20:13:44.185Z,14.32
2023-02-12T20:16:15.972Z,16.15
2023-02-12T20:18:44.942Z,17.13
2023-02-12T20:21:15.009Z,16.30
2023-02-12T20:23:44.745Z,16.08
2023-02-12T20:26:17.039Z,14.57
2023-02-12T20:28:47.278Z,15.38
2023-02-12T20:31:21.478Z,16.90
2023-02-12T20:33:54.640Z,15.85
2023-02-12T20:36:24.261Z,16.58
2023-02-12T20:38:58.770Z,18.73
2023-02-12T20:41:39.996Z,18.35
2023-02-12T20:47:12.481Z,16.05
2023-02-12T20:49:42.728Z,17.92
2023-02-12T20:52:15.318Z,16.38
2023-02-12T20:54:47.717Z,17.58
2023-02-12T20:57:17.772Z,16.70
2023-02-12T20:59:47.223Z,15.98
2023-02-12T21:02:15.392Z,17.50
2023-02-12T21:04:45.514Z,19.85
2023-02-12T21:07:12.308Z,17.92
2023-02-12T21:09:41.755Z,17.92
2023-02-12T21:12:12.184Z,19.38
2023-02-12T21:14:39.656Z,17.98
2023-02-12T21:17:14.430Z,18.10
2023-02-12T21:19:48.948Z,19.65
2023-02-12T21:22:18.600Z,21.48
2023-02-12T21:24:47.029Z,18.33
2023-02-12T21:27:16.231Z,18.65
2023-02-12T21:29:43.140Z,21.02
2023-02-12T21:32:12.681Z,18.33
2023-02-12T21:34:48.865Z,21.33
2023-02-12T21:39:42.343Z,23.05
2023-02-12T21:42:09.172Z,19.98
2023-02-12T21:44:36.152Z,21.40
2023-02-12T21:47:04.015Z,19.70
2023-02-12T21:49:31.084Z,19.90
2023-02-12T21:52:02.360Z,19.65
2023-02-12T21:54:30.575Z,19.33
2023-02-12T21:56:58.130Z,21.10
2023-02-12T21:59:26.738Z,21.73
2023-02-12T22:02:01.141Z,20.58
2023-02-12T22:04:28.328Z,24.38
2023-02-12T22:06:56.692Z,21.45
2023-02-12T22:09:26.099Z,20.60
2023-02-12T22:11:59.654Z,21.65
2023-02-12T22:14:29.343Z,20.77
2023-02-12T22:16:59.614Z,21.60
2023-02-12T22:19:29.612Z,21.63
2023-02-12T22:21:59.357Z,21.85
2023-02-12T22:24:26.670Z,20.38
2023-02-12T22:26:57.753Z,21.13
2023-02-12T22:29:30.707Z,20.77
2023-02-12T22:31:59.628Z,21.30
2023-02-12T22:34:29.090Z,22.92
2023-02-12T22:36:56.230Z,21.25
2023-02-12T22:39:23.284Z,20.88
2023-02-12T22:41:51.613Z,19.95
2023-02-12T22:44:24.021Z,19.60
2023-02-12T22:46:53.657Z,18.88
2023-02-12T22:49:20.949Z,19.88
2023-02-12T22:51:57.874Z,18.75
2023-02-12T22:54:32.308Z,23.02
2023-02-12T22:56:59.848Z,21.80
2023-02-12T22:59:30.190Z,23.20
2023-02-12T23:02:08.593Z,23.23
2023-02-12T23:04:45.664Z,20.88
2023-02-12T23:07:19.058Z,21.02
2023-02-12T23:09:53.837Z,21.23
2023-02-12T23:12:21.076Z,21.42
2023-02-12T23:14:49.711Z,20.25
2023-02-12T23:17:19.010Z,21.48
2023-02-12T23:19:53.180Z,22.75
2023-02-12T23:22:22.388Z,22.58
2023-02-12T23:24:55.486Z,24.85
2023-02-12T23:27:26.834Z,25.15
2023-02-12T23:30:03.471Z,21.65
2023-02-12T23:32:32.450Z,22.23
2023-02-12T23:35:02.480Z,22.98
2023-02-12T23:37:32.123Z,23.13
2023-02-12T23:40:02.469Z,20.92
2023-02-12T23:42:29.404Z,21.95
2023-02-12T23:44:57.616Z,21.85
2023-02-12T23:47:30.199Z,20.33
2023-02-12T23:50:02.429Z,20.40
2023-02-12T23:52:32.163Z,20.92
2023-02-12T23:55:01.243Z,18.60
2023-02-12T23:57:28.054Z,20.58
2023-02-12T23:59:54.831Z,21.65
